Time;durP1;ratioP1;P1;durP2;ratioP2;P2;SDS_P1;SDS_P2;PMS_P1;PMS_P2;Temp;Humidity;BMP_temperature;BMP_pressure;BME280_temperature;BME280_humidity;BME280_pressure;Samples;Min_cycle;Max_cycle;Signal;HPM_P1;HPM_P2
2024/02/17 00:00:05;;;;;;;0.40;0.40;;;;;;;3.66;82.44;97819.81;4991559;28;20540;-60
2024/02/17 00:02:33;;;;;;;0.40;0.40;;;;;;;3.49;82.71;97825.13;5005702;28;20054;-63
2024/02/17 00:05:01;;;;;;;0.40;0.40;;;;;;;3.57;82.95;97832.63;5006003;28;20141;-61
2024/02/17 00:07:28;;;;;;;0.40;0.40;;;;;;;2.88;83.81;97732.47;5004489;28;20104;-60
2024/02/17 00:09:56;;;;;;;0.40;0.40;;;;;;;3.24;83.51;97822.88;5005572;28;20507;-65
2024/02/17 00:12:22;;;;;;;0.40;0.40;;;;;;;3.29;84.41;97814.56;5005194;28;20053;-59
2024/02/17 00:14:49;;;;;;;0.50;0.50;;;;;;;3.35;84.73;97818.03;5005414;28;20065;-64
2024/02/17 00:17:16;;;;;;;0.40;0.40;;;;;;;3.51;83.65;97819.34;5005614;28;20050;-65
2024/02/17 00:19:45;;;;;;;0.40;0.40;;;;;;;3.32;82.16;97789.31;5005582;28;20061;-64
2024/02/17 00:22:13;;;;;;;0.40;0.40;;;;;;;3.59;83.38;97818.63;5005532;28;20049;-65
2024/02/17 00:24:40;;;;;;;0.30;0.30;;;;;;;3.59;82.90;97816.66;5005509;28;20058;-65
2024/02/17 00:27:07;;;;;;;0.40;0.40;;;;;;;3.61;82.29;97822.66;5005565;28;20448;-61
2024/02/17 00:29:34;;;;;;;0.40;0.40;;;;;;;3.58;82.71;97921.88;5003869;28;20054;-60
2024/02/17 00:32:01;;;;;;;0.30;0.30;;;;;;;3.48;82.08;97796.09;5005367;28;20077;-59
2024/02/17 00:34:28;;;;;;;0.40;0.40;;;;;;;3.47;82.35;97832.81;5006064;28;20085;-59
2024/02/17 00:36:55;;;;;;;0.30;0.30;;;;;;;3.11;81.92;97755.28;5006087;28;20057;-59
2024/02/17 00:39:21;;;;;;;0.40;0.40;;;;;;;3.21;83.83;97822.69;5005573;28;20057;-64
2024/02/17 00:41:48;;;;;;;0.40;0.40;;;;;;;3.10;83.42;97778.28;5005363;28;20064;-65
2024/02/17 00:44:15;;;;;;;0.40;0.40;;;;;;;3.35;83.52;97818.81;5005008;28;20058;-65
2024/02/17 00:46:42;;;;;;;0.40;0.40;;;;;;;3.44;82.99;97822.47;5004928;28;20120;-61
2024/02/17 00:49:10;;;;;;;0.40;0.40;;;;;;;2.92;83.18;97749.09;5003070;28;20469;-65
2024/02/17 00:51:37;;;;;;;0.40;0.40;;;;;;;3.40;82.69;97810.50;5005176;28;20060;-67
2024/02/17 00:54:04;;;;;;;0.40;0.40;;;;;;;3.35;83.19;97810.59;5004555;28;20136;-60
2024/02/17 00:56:31;;;;;;;0.30;0.30;;;;;;;0.34;82.46;97332.88;5003488;28;20394;-61
2024/02/17 00:58:58;;;;;;;0.40;0.40;;;;;;;3.29;83.44;97811.81;5001309;28;20435;-59
2024/02/17 01:01:26;;;;;;;0.40;0.40;;;;;;;3.12;82.89;97789.72;4985057;28;20051;-59
2024/02/17 01:04:04;;;;;;;0.38;0.38;;;;;;;3.35;82.26;97815.28;4983370;28;20061;-64
2024/02/17 01:06:31;;;;;;;0.32;0.32;;;;;;;2.81;82.62;97742.22;4983545;28;20058;-59
2024/02/17 01:08:58;;;;;;;0.30;0.30;;;;;;;2.63;83.36;97743.91;4977019;28;20058;-59
2024/02/17 01:11:25;;;;;;;0.40;0.40;;;;;;;3.17;83.84;97817.00;4997319;28;20141;-64
2024/02/17 01:13:52;;;;;;;0.40;0.40;;;;;;;2.76;83.91;97728.63;4985443;28;20129;-64
2024/02/17 01:16:19;;;;;;;0.30;0.30;;;;;;;3.24;83.41;97800.19;4985281;28;20133;-59
2024/02/17 01:18:46;;;;;;;0.40;0.40;;;;;;;3.28;83.60;97807.47;4983156;28;20062;-65
2024/02/17 01:21:13;;;;;;;0.40;0.40;;;;;;;3.29;83.60;97813.78;4985118;28;20575;-59
2024/02/17 01:23:40;;;;;;;0.40;0.40;;;;;;;2.95;83.43;97776.66;4984793;28;20062;-65
2024/02/17 01:26:07;;;;;;;0.40;0.40;;;;;;;3.02;82.76;97787.19;4984849;28;20089;-63
2024/02/17 01:28:34;;;;;;;0.40;0.40;;;;;;;3.05;83.95;97803.03;4983563;28;20089;-59
2024/02/17 01:31:01;;;;;;;0.30;0.30;;;;;;;2.33;84.82;97678.03;4983363;28;20173;-64
2024/02/17 01:33:27;;;;;;;0.45;0.45;;;;;;;0.69;84.23;97424.94;4983458;28;20143;-67
2024/02/17 01:35:54;;;;;;;0.40;0.40;;;;;;;3.10;84.47;97791.94;4984468;28;20145;-65
2024/02/17 01:38:22;;;;;;;0.40;0.40;;;;;;;2.80;85.85;97784.34;4984178;28;20056;-67
2024/02/17 01:40:49;;;;;;;0.30;0.30;;;;;;;2.78;85.86;97765.50;4983686;28;20055;-60
2024/02/17 01:43:16;;;;;;;0.30;0.30;;;;;;;3.15;84.96;97794.59;4984542;28;20058;-66
2024/02/17 01:45:44;;;;;;;0.40;0.40;;;;;;;3.15;85.87;97791.84;4984455;28;20866;-59
2024/02/17 01:48:13;;;;;;;0.40;0.40;;;;;;;2.96;85.66;97761.03;4984777;28;20072;-59
2024/02/17 01:50:40;;;;;;;0.30;0.30;;;;;;;3.07;85.82;97790.66;4984464;28;20081;-65
2024/02/17 01:53:07;;;;;;;0.40;0.40;;;;;;;2.83;86.36;97764.56;4984243;28;20055;-65
2024/02/17 01:55:35;;;;;;;0.30;0.30;;;;;;;2.87;85.83;97771.09;4983993;28;20429;-66
2024/02/17 01:58:02;;;;;;;0.40;0.40;;;;;;;2.92;85.85;97782.72;4982789;28;20050;-65
2024/02/17 02:00:29;;;;;;;0.30;0.30;;;;;;;2.96;86.10;97799.34;4982505;28;20072;-66
2024/02/17 02:02:56;;;;;;;0.40;0.40;;;;;;;2.82;84.66;97750.09;4982971;28;20502;-65
2024/02/17 02:05:23;;;;;;;0.40;0.40;;;;;;;2.65;85.13;97738.13;4984149;28;20062;-64
2024/02/17 02:07:50;;;;;;;0.40;0.40;;;;;;;2.70;85.59;97749.00;4983985;28;20160;-65
2024/02/17 02:10:17;;;;;;;0.40;0.40;;;;;;;2.92;85.43;97773.72;4983954;28;20437;-62
2024/02/17 02:12:44;;;;;;;0.40;0.40;;;;;;;2.82;85.38;97765.69;4983588;28;20553;-65
2024/02/17 02:15:12;;;;;;;0.30;0.30;;;;;;;2.91;86.13;97778.38;4983394;28;20058;-60
2024/02/17 02:17:43;;;;;;;0.40;0.40;;;;;;;2.72;87.00;97774.09;4983888;28;20062;-66
2024/02/17 02:20:13;;;;;;;0.40;0.40;;;;;;;2.11;87.32;97694.31;4982688;28;20498;-60
2024/02/17 02:22:45;;;;;;;0.40;0.40;;;;;;;2.90;86.53;97770.47;4982723;28;20050;-65
2024/02/17 02:25:27;;;;;;;0.40;0.40;;;;;;;2.73;86.79;97762.88;4984546;28;20156;-61
2024/02/17 02:27:55;;;;;;;0.40;0.40;;;;;;;2.46;85.54;97723.72;4984123;28;20062;-60
2024/02/17 02:30:22;;;;;;;0.30;0.30;;;;;;;1.80;88.59;97698.66;4982195;28;20058;-65
2024/02/17 02:32:49;;;;;;;0.32;0.32;;;;;;;2.53;88.90;97778.84;4983243;28;20140;-60
2024/02/17 02:35:16;;;;;;;0.30;0.30;;;;;;;2.61;86.79;97764.44;4983402;28;20365;-65
2024/02/17 02:37:43;;;;;;;0.40;0.40;;;;;;;2.67;86.99;97785.16;4983229;28;20054;-66
2024/02/17 02:40:10;;;;;;;0.40;0.40;;;;;;;2.74;87.54;97780.06;4981847;28;20054;-65
2024/02/17 02:42:37;;;;;;;0.30;0.30;;;;;;;2.77;87.18;97780.28;4983651;28;20081;-60
2024/02/17 02:45:06;;;;;;;0.40;0.40;;;;;;;2.76;86.68;97769.66;4983389;28;20046;-60
2024/02/17 02:47:33;;;;;;;0.40;0.40;;;;;;;2.64;86.88;97781.06;4983189;28;20096;-61
2024/02/17 02:50:00;;;;;;;0.30;0.30;;;;;;;2.31;86.31;97726.75;4983511;28;20481;-66
2024/02/17 02:52:27;;;;;;;0.35;0.35;;;;;;;2.67;86.41;97785.16;4982596;28;20074;-66
2024/02/17 02:54:54;;;;;;;0.30;0.30;;;;;;;2.63;85.32;97778.63;4981869;28;20117;-65
2024/02/17 02:57:21;;;;;;;0.40;0.40;;;;;;;2.68;86.07;97770.34;4981578;28;20140;-67
2024/02/17 02:59:49;;;;;;;0.30;0.30;;;;;;;1.76;86.10;97665.69;4983247;28;20747;-58
2024/02/17 03:02:16;;;;;;;0.40;0.40;;;;;;;2.51;87.08;97778.31;4965784;28;20051;-64
2024/02/17 03:04:43;;;;;;;0.30;0.30;;;;;;;2.59;86.85;97772.97;4963486;28;20058;-65
2024/02/17 03:07:10;;;;;;;0.40;0.40;;;;;;;-0.44;86.93;97305.50;4964007;28;20682;-65
2024/02/17 03:09:37;;;;;;;0.40;0.40;;;;;;;2.27;89.97;97785.84;4963466;28;20051;-60
2024/02/17 03:12:04;;;;;;;0.40;0.40;;;;;;;2.03;89.50;97725.03;4962066;28;20506;-65
2024/02/17 03:14:33;;;;;;;0.30;0.30;;;;;;;2.04;90.55;97764.94;4963271;28;20066;-63
2024/02/17 03:17:00;;;;;;;0.30;0.30;;;;;;;2.12;91.51;97794.31;4963354;28;20055;-61
2024/02/17 03:19:26;;;;;;;0.40;0.40;;;;;;;2.36;91.34;97789.50;4946010;28;20069;-66
2024/02/17 03:21:53;;;;;;;0.30;0.30;;;;;;;2.47;90.04;97790.97;4963717;28;20055;-59
2024/02/17 03:24:20;;;;;;;0.30;0.30;;;;;;;2.49;89.70;97794.22;4961710;28;20557;-65
2024/02/17 03:26:47;;;;;;;0.30;0.30;;;;;;;2.52;89.40;97821.78;4963196;28;20114;-59
2024/02/17 03:29:14;;;;;;;0.38;0.38;;;;;;;2.42;89.54;97775.47;4963539;28;20066;-65
2024/02/17 03:31:41;;;;;;;0.38;0.38;;;;;;;2.67;87.84;97791.41;4963366;28;20129;-65
2024/02/17 03:34:08;;;;;;;0.32;0.32;;;;;;;2.69;87.68;97793.84;4963441;28;20051;-60
2024/02/17 03:36:35;;;;;;;0.40;0.40;;;;;;;1.84;88.39;97675.94;4963790;28;20458;-65
2024/02/17 03:39:06;;;;;;;0.40;0.40;;;;;;;2.17;88.83;97723.16;4963172;28;20059;-62
2024/02/17 03:41:32;;;;;;;0.40;0.40;;;;;;;2.64;88.64;97792.00;4963142;28;20050;-61
2024/02/17 03:43:59;;;;;;;0.40;0.40;;;;;;;2.53;88.48;97792.50;4963698;28;20054;-64
2024/02/17 03:46:26;;;;;;;0.30;0.30;;;;;;;2.48;88.60;97787.13;4963491;28;20135;-65
2024/02/17 03:48:53;;;;;;;0.40;0.40;;;;;;;2.34;89.32;97813.63;4963118;28;20065;-65
2024/02/17 03:51:20;;;;;;;0.30;0.30;;;;;;;1.96;89.37;97721.91;4961545;28;20142;-61
2024/02/17 03:53:47;;;;;;;0.32;0.32;;;;;;;2.27;88.91;97775.75;4963385;28;20117;-65
2024/02/17 03:56:17;;;;;;;0.30;0.30;;;;;;;1.95;90.15;97745.66;4963274;28;20117;-61
2024/02/17 03:58:44;;;;;;;0.30;0.30;;;;;;;1.89;89.58;97746.03;4962936;28;20137;-62
2024/02/17 04:01:11;;;;;;;0.30;0.30;;;;;;;1.64;89.30;97702.75;4963141;28;20050;-67
2024/02/17 04:03:38;;;;;;;0.30;0.30;;;;;;;1.97;90.35;97808.19;4963303;28;20145;-66
2024/02/17 04:06:05;;;;;;;0.35;0.35;;;;;;;1.86;90.95;97760.28;4966895;28;20137;-65
2024/02/17 04:08:32;;;;;;;0.40;0.40;;;;;;;2.13;91.06;97795.94;4966755;28;20055;-66
2024/02/17 04:11:00;;;;;;;0.30;0.30;;;;;;;2.27;90.46;97788.59;4966799;28;20065;-64
2024/02/17 04:13:28;;;;;;;0.30;0.30;;;;;;;2.02;90.11;97756.22;4966520;28;20066;-67
2024/02/17 04:15:55;;;;;;;0.30;0.30;;;;;;;1.62;90.40;97735.00;4964797;28;20086;-59
2024/02/17 04:18:22;;;;;;;0.30;0.30;;;;;;;1.69;90.23;97735.44;4966673;28;20073;-66
2024/02/17 04:20:49;;;;;;;0.32;0.32;;;;;;;2.29;89.94;97795.34;4967535;28;20125;-65
2024/02/17 04:23:15;;;;;;;0.30;0.30;;;;;;;2.33;89.11;97811.97;4967248;28;20050;-60
2024/02/17 04:25:42;;;;;;;0.30;0.30;;;;;;;2.28;89.40;97814.78;4966745;28;20053;-65
2024/02/17 04:28:09;;;;;;;0.40;0.40;;;;;;;2.30;90.26;97798.91;4966626;28;20137;-62
2024/02/17 04:30:36;;;;;;;0.30;0.30;;;;;;;2.32;90.17;97816.66;4964799;28;20469;-65
2024/02/17 04:33:03;;;;;;;0.30;0.30;;;;;;;1.74;90.22;97710.78;4964748;28;20086;-60
2024/02/17 04:35:30;;;;;;;0.30;0.30;;;;;;;2.18;90.16;97798.59;4964436;28;20046;-60
2024/02/17 04:37:57;;;;;;;0.40;0.40;;;;;;;2.27;90.33;97807.72;4966180;28;20062;-60
2024/02/17 04:40:24;;;;;;;0.40;0.40;;;;;;;2.21;89.84;97811.66;4966287;28;20411;-60
2024/02/17 04:42:52;;;;;;;0.30;0.30;;;;;;;1.51;91.76;97757.00;4965812;28;20600;-65
2024/02/17 04:45:19;;;;;;;0.30;0.30;;;;;;;1.66;92.58;97763.34;4965382;28;20152;-66
2024/02/17 04:47:46;;;;;;;0.40;0.40;;;;;;;1.32;91.94;97728.06;4966100;28;20067;-66
2024/02/17 04:50:13;;;;;;;0.40;0.40;;;;;;;1.60;94.63;97819.91;4966057;28;20063;-66
2024/02/17 04:52:41;;;;;;;0.30;0.30;;;;;;;1.80;93.96;97814.19;4965641;28;20058;-66
2024/02/17 04:55:08;;;;;;;0.30;0.30;;;;;;;1.90;93.89;97813.22;4965598;28;20050;-60
2024/02/17 04:57:36;;;;;;;0.40;0.40;;;;;;;1.92;92.58;97811.00;4965728;28;20070;-66
2024/02/17 05:00:05;;;;;;;0.30;0.30;;;;;;;1.99;92.76;97816.91;4974277;28;20569;-65
2024/02/17 05:02:36;;;;;;;0.30;0.30;;;;;;;1.73;91.52;97770.03;4985274;28;20499;-66
2024/02/17 05:05:03;;;;;;;0.38;0.38;;;;;;;1.91;91.57;97787.53;4985434;28;20133;-65
2024/02/17 05:07:30;;;;;;;0.30;0.30;;;;;;;1.63;91.81;97762.00;4985605;28;20085;-66
2024/02/17 05:09:57;;;;;;;0.30;0.30;;;;;;;1.90;91.32;97794.13;4983997;28;20065;-66
2024/02/17 05:12:24;;;;;;;0.30;0.30;;;;;;;2.01;91.24;97806.50;4983486;28;20062;-66
2024/02/17 05:14:51;;;;;;;0.30;0.30;;;;;;;2.07;91.29;97813.50;4983883;28;20050;-66
2024/02/17 05:17:18;;;;;;;0.30;0.30;;;;;;;0.89;93.56;97737.34;4984313;28;20064;-61
2024/02/17 05:19:46;;;;;;;0.30;0.30;;;;;;;0.89;96.00;97716.38;4983194;28;20426;-60
2024/02/17 05:22:13;;;;;;;0.40;0.40;;;;;;;1.60;96.02;97819.13;4983333;28;20066;-65
2024/02/17 05:24:43;;;;;;;0.30;0.30;;;;;;;1.75;96.42;97827.09;4984618;28;20050;-61
2024/02/17 05:27:11;;;;;;;0.30;0.30;;;;;;;1.79;94.70;97847.25;4985066;28;20144;-61
2024/02/17 05:29:38;;;;;;;0.30;0.30;;;;;;;1.92;93.51;97827.38;4984569;28;20054;-66
2024/02/17 05:32:06;;;;;;;0.40;0.40;;;;;;;1.96;92.70;97831.97;4984750;28;20509;-66
2024/02/17 05:34:34;;;;;;;0.38;0.38;;;;;;;2.00;92.75;97843.13;4984319;28;20571;-65
2024/02/17 05:37:03;;;;;;;0.30;0.30;;;;;;;1.57;92.87;97782.28;4983995;28;20444;-60
2024/02/17 05:39:31;;;;;;;0.30;0.30;;;;;;;2.04;93.12;97846.91;4982961;28;20060;-61
2024/02/17 05:41:59;;;;;;;0.30;0.30;;;;;;;2.04;93.75;97841.44;4984534;28;20053;-63
2024/02/17 05:44:27;;;;;;;0.32;0.32;;;;;;;2.13;93.19;97845.09;4984887;28;20046;-60
2024/02/17 05:46:53;;;;;;;0.30;0.30;;;;;;;1.75;91.57;97769.75;4984385;28;20077;-64
2024/02/17 05:49:21;;;;;;;0.30;0.30;;;;;;;2.34;91.25;97851.88;4984476;28;20062;-66
2024/02/17 05:51:49;;;;;;;0.35;0.35;;;;;;;2.44;91.37;97854.44;4983322;28;20054;-66
2024/02/17 05:54:18;;;;;;;0.32;0.32;;;;;;;2.40;90.95;97834.28;4980598;28;20132;-61
2024/02/17 05:56:46;;;;;;;0.30;0.30;;;;;;;2.55;90.67;97864.91;4983700;28;20050;-60
2024/02/17 05:59:15;;;;;;;0.30;0.30;;;;;;;2.00;90.95;97769.34;4983176;28;20053;-67
2024/02/17 06:01:42;;;;;;;0.32;0.32;;;;;;;2.67;90.25;97857.03;4983225;28;20073;-67
2024/02/17 06:04:09;;;;;;;0.38;0.38;;;;;;;2.67;90.18;97848.06;4983046;28;20060;-60
2024/02/17 06:06:36;;;;;;;0.40;0.40;;;;;;;2.85;90.24;97858.09;4983615;28;20054;-66
2024/02/17 06:09:04;;;;;;;0.30;0.30;;;;;;;2.98;89.63;97860.06;4982215;28;20065;-61
2024/02/17 06:11:31;;;;;;;0.40;0.40;;;;;;;2.74;89.64;97812.91;4982701;28;20061;-61
2024/02/17 06:13:58;;;;;;;0.30;0.30;;;;;;;3.36;88.85;97857.97;4983610;28;20058;-65
2024/02/17 06:16:28;;;;;;;0.40;0.40;;;;;;;3.11;87.60;97801.81;4983794;28;20457;-67
2024/02/17 06:21:41;;;;;;;0.40;0.40;;;;;;;3.39;87.29;97814.38;4983576;28;20569;-67
2024/02/17 06:24:08;;;;;;;0.40;0.40;;;;;;;3.91;86.73;97870.50;4983644;28;20433;-66
2024/02/17 06:26:35;;;;;;;0.40;0.40;;;;;;;3.96;86.36;97846.53;4983185;28;20555;-66
2024/02/17 06:29:06;;;;;;;0.40;0.40;;;;;;;4.11;85.80;97848.94;4983403;28;20065;-62
2024/02/17 06:31:33;;;;;;;0.40;0.40;;;;;;;4.23;85.80;97851.97;4983782;28;20509;-61
2024/02/17 06:34:05;;;;;;;0.40;0.40;;;;;;;3.93;86.14;97819.75;4983294;28;20046;-67
2024/02/17 06:36:32;;;;;;;0.40;0.40;;;;;;;4.54;85.54;97869.31;4982126;28;20051;-66
2024/02/17 06:38:59;;;;;;;0.40;0.40;;;;;;;4.43;85.19;97835.00;4981686;28;20067;-61
2024/02/17 06:41:26;;;;;;;0.40;0.40;;;;;;;5.01;84.79;97872.53;4983021;28;20046;-61
2024/02/17 06:43:54;;;;;;;0.40;0.40;;;;;;;5.17;83.65;97882.78;4983762;28;20050;-61
2024/02/17 06:46:20;;;;;;;0.50;0.50;;;;;;;5.30;83.44;97881.06;4982554;28;20517;-62
2024/02/17 06:48:49;;;;;;;0.40;0.40;;;;;;;5.53;83.38;97879.91;4982659;28;20409;-60
2024/02/17 06:51:19;;;;;;;0.50;0.50;;;;;;;5.75;82.85;97877.06;4982870;28;20481;-67
2024/02/17 06:53:46;;;;;;;0.50;0.50;;;;;;;5.51;81.98;97800.53;4979913;28;20058;-64
2024/02/17 06:56:13;;;;;;;0.40;0.40;;;;;;;5.47;80.71;97771.28;4964630;28;20133;-66
2024/02/17 06:58:41;;;;;;;0.50;0.50;;;;;;;5.96;79.21;97803.84;4965772;28;20125;-65
2024/02/17 07:01:09;;;;;;;0.50;0.50;;;;;;;6.66;77.25;97859.38;4969960;28;20290;-66
2024/02/17 07:03:36;;;;;;;0.57;0.57;;;;;;;6.78;76.13;97867.78;4991585;28;20692;-62
2024/02/17 07:06:04;;;;;;;0.60;0.60;;;;;;;6.78;75.42;97844.97;4967536;28;20050;-66
2024/02/17 07:08:32;;;;;;;0.60;0.60;;;;;;;7.10;75.25;97869.19;4977285;28;20097;-63
2024/02/17 07:10:59;;;;;;;0.60;0.60;;;;;;;6.96;73.98;97819.81;4982796;28;20047;-65
2024/02/17 07:13:26;;;;;;;0.60;0.60;;;;;;;7.37;73.24;97872.38;4972920;28;20130;-61
2024/02/17 07:15:53;;;;;;;0.60;0.60;;;;;;;7.00;73.89;97782.22;4972123;28;20046;-62
2024/02/17 07:18:20;;;;;;;0.63;0.63;;;;;;;7.60;71.73;97851.69;4980917;28;20065;-62
2024/02/17 07:20:48;;;;;;;0.70;0.70;;;;;;;7.79;71.27;97853.22;4975929;28;20121;-62
2024/02/17 07:23:20;;;;;;;0.60;0.60;;;;;;;7.99;71.96;97838.66;4963983;28;20633;-66
2024/02/17 07:25:47;;;;;;;0.60;0.60;;;;;;;7.95;71.45;97801.84;4966168;28;20061;-64
2024/02/17 07:28:14;;;;;;;0.73;0.73;;;;;;;8.36;70.90;97852.38;4982916;28;20056;-62
2024/02/17 07:30:41;;;;;;;0.70;0.70;;;;;;;8.21;70.19;97805.22;4983108;28;20433;-69
2024/02/17 07:33:10;;;;;;;0.70;0.70;;;;;;;8.19;70.07;97766.94;4975891;28;20836;-63
2024/02/17 07:35:42;;;;;;;0.70;0.70;;;;;;;8.63;69.85;97812.38;4974229;28;20139;-61
2024/02/17 07:38:10;;;;;;;0.77;0.77;;;;;;;8.55;68.43;97738.72;4970230;28;20054;-62
2024/02/17 07:40:38;;;;;;;0.80;0.80;;;;;;;9.28;66.84;97839.97;4970855;28;20116;-65
2024/02/17 07:43:05;;;;;;;0.80;0.80;;;;;;;9.11;66.22;97807.81;4974848;28;20063;-64
2024/02/17 07:45:32;;;;;;;0.77;0.77;;;;;;;9.50;65.65;97795.31;4972108;28;20057;-61
2024/02/17 07:48:00;;;;;;;0.80;0.80;;;;;;;9.99;64.36;97860.56;4971504;28;20050;-67
2024/02/17 07:50:27;;;;;;;0.80;0.80;;;;;;;9.97;63.84;97837.97;4979987;28;20062;-63
2024/02/17 07:52:54;;;;;;;0.80;0.80;;;;;;;10.20;64.66;97850.19;4980164;28;20077;-61
2024/02/17 07:55:21;;;;;;;0.80;0.80;;;;;;;10.20;65.15;97855.72;4968243;28;20046;-63
2024/02/17 07:57:49;;;;;;;0.80;0.80;;;;;;;9.62;67.00;97850.66;4969821;28;20812;-69
2024/02/17 08:00:16;;;;;;;0.80;0.80;;;;;;;9.59;67.88;97809.84;4982829;28;20090;-65
2024/02/17 08:02:45;;;;;;;0.82;0.82;;;;;;;10.10;66.48;97850.66;4974277;28;20042;-73
2024/02/17 08:05:13;;;;;;;0.80;0.80;;;;;;;10.19;66.16;97820.91;4991082;28;20058;-68
2024/02/17 08:07:41;;;;;;;0.90;0.90;;;;;;;10.55;65.22;97837.44;4997848;28;20055;-66
2024/02/17 08:10:11;;;;;;;0.88;0.88;;;;;;;10.00;64.04;97704.44;4968406;28;20055;-64
2024/02/17 08:12:38;;;;;;;0.88;0.88;;;;;;;11.08;62.46;97846.47;4997565;28;20061;-63
2024/02/17 08:15:06;;;;;;;0.80;0.80;;;;;;;11.19;62.33;97837.25;4978075;28;20047;-68
2024/02/17 08:17:36;;;;;;;0.93;0.93;;;;;;;11.35;61.32;97829.78;4996474;28;20551;-68
2024/02/17 08:20:05;;;;;;;0.90;0.90;;;;;;;11.53;61.18;97835.78;4971461;28;20117;-68
2024/02/17 08:22:32;;;;;;;0.90;0.90;;;;;;;9.69;60.27;97512.59;4976005;28;20505;-69
2024/02/17 08:25:00;;;;;;;0.90;0.90;;;;;;;11.50;59.15;97753.28;4963731;28;20532;-63
2024/02/17 08:27:28;;;;;;;0.90;0.90;;;;;;;11.87;58.12;97791.50;4978025;28;20069;-70
2024/02/17 08:29:55;;;;;;;0.93;0.93;;;;;;;12.35;58.17;97834.66;4974913;28;20077;-69
2024/02/17 08:32:22;;;;;;;1.10;1.10;;;;;;;12.05;56.63;97753.84;4974712;28;20050;-64
2024/02/17 08:34:49;;;;;;;1.00;1.00;;;;;;;12.50;55.81;97806.03;4962609;28;20067;-67
2024/02/17 08:37:17;;;;;;;1.00;1.00;;;;;;;12.41;54.75;97799.88;4964882;28;20433;-67
2024/02/17 08:39:51;;;;;;;1.00;1.00;;;;;;;12.53;55.14;97840.63;4965731;28;20541;-74
2024/02/17 08:42:30;;;;;;;1.10;1.10;;;;;;;12.56;54.91;97824.03;4966020;28;20054;-65
2024/02/17 08:44:57;;;;;;;1.02;1.02;;;;;;;12.53;54.92;97813.66;4973021;28;20475;-62
2024/02/17 08:47:24;;;;;;;1.10;1.10;;;;;;;12.02;54.39;97681.56;4978338;28;20055;-70
2024/02/17 08:49:51;;;;;;;1.10;1.10;;;;;;;13.26;53.80;97846.97;4976519;28;20051;-71
2024/02/17 08:52:18;;;;;;;1.20;1.20;;;;;;;13.21;53.60;97803.56;4980053;28;20064;-64
2024/02/17 08:54:45;;;;;;;1.20;1.20;;;;;;;13.43;52.23;97808.34;4983215;28;20050;-64
2024/02/17 08:57:13;;;;;;;1.20;1.20;;;;;;;13.79;50.95;97853.50;4982607;28;20081;-62
2024/02/17 08:59:39;;;;;;;1.10;1.10;;;;;;;12.50;51.20;97686.56;4971527;28;20631;-73
2024/02/17 09:02:06;;;;;;;1.23;1.23;;;;;;;14.06;50.27;97846.78;4983141;28;20053;-69
2024/02/17 09:04:33;;;;;;;1.10;1.10;;;;;;;13.28;50.20;97761.94;4983747;28;20137;-70
2024/02/17 09:07:00;;;;;;;1.30;1.30;;;;;;;14.15;50.12;97850.94;4985024;28;20157;-64
2024/02/17 09:09:28;;;;;;;1.23;1.23;;;;;;;13.53;50.27;97777.09;4983128;28;20050;-67
2024/02/17 09:11:55;;;;;;;1.27;1.27;;;;;;;14.04;49.67;97849.97;4984725;28;20061;-64
2024/02/17 09:14:22;;;;;;;1.30;1.30;;;;;;;14.09;49.49;97820.97;4984242;28;20141;-70
2024/02/17 09:16:49;;;;;;;1.13;1.13;;;;;;;13.45;50.17;97842.16;4972638;28;20141;-65
2024/02/17 09:19:16;;;;;;;1.13;1.13;;;;;;;13.46;50.71;97835.44;4983682;28;20061;-65
2024/02/17 09:21:43;;;;;;;1.50;1.50;;;;;;;13.12;50.40;97697.25;4984681;28;20050;-69
2024/02/17 09:24:10;;;;;;;1.20;1.20;;;;;;;12.90;50.27;97723.06;4964737;28;20073;-68
2024/02/17 09:26:37;;;;;;;1.38;1.38;;;;;;;13.83;50.04;97866.31;4965189;28;20423;-69
2024/02/17 09:29:03;;;;;;;1.30;1.30;;;;;;;13.21;50.51;97706.19;4965852;28;20130;-71
2024/02/17 09:31:30;;;;;;;1.17;1.17;;;;;;;13.25;49.54;97679.22;4967488;28;20098;-69
2024/02/17 09:34:00;;;;;;;1.30;1.30;;;;;;;14.54;49.10;97846.00;4966100;28;20093;-68
2024/02/17 09:36:28;;;;;;;1.33;1.33;;;;;;;14.60;48.96;97838.91;4964685;28;20545;-65
2024/02/17 09:38:55;;;;;;;1.20;1.20;;;;;;;14.59;48.70;97831.72;4974836;28;20058;-69
2024/02/17 09:41:21;;;;;;;1.52;1.52;;;;;;;12.55;49.00;97513.94;4985433;28;20041;-69
2024/02/17 09:43:51;;;;;;;1.33;1.33;;;;;;;14.18;49.59;97836.25;4981548;28;20120;-65
2024/02/17 09:46:19;;;;;;;1.30;1.30;;;;;;;13.70;50.05;97823.91;4980888;28;20154;-69
2024/02/17 09:48:45;;;;;;;1.10;1.10;;;;;;;14.16;49.38;97829.44;4984876;28;20054;-65
2024/02/17 09:51:14;;;;;;;1.20;1.20;;;;;;;13.79;49.62;97842.34;4984895;28;20554;-70
2024/02/17 09:53:41;;;;;;;1.02;1.02;;;;;;;13.90;49.58;97832.19;4982365;28;20099;-72
2024/02/17 09:56:08;;;;;;;1.30;1.30;;;;;;;13.58;49.04;97709.16;4980590;28;20061;-68
2024/02/17 09:58:36;;;;;;;1.10;1.10;;;;;;;14.63;48.40;97824.19;4978539;28;21748;-65
2024/02/17 10:01:03;;;;;;;1.20;1.20;;;;;;;14.81;47.23;97822.47;4969498;28;20505;-63
2024/02/17 10:03:30;;;;;;;1.45;1.45;;;;;;;14.85;47.33;97814.94;4982827;28;20161;-70
2024/02/17 10:06:10;;;;;;;1.35;1.35;;;;;;;14.95;47.14;97789.94;4963516;28;20084;-70
2024/02/17 10:08:41;;;;;;;1.40;1.40;;;;;;;15.33;46.99;97811.13;4963520;28;20058;-66
2024/02/17 10:11:11;;;;;;;1.60;1.60;;;;;;;15.52;46.92;97804.56;4964718;28;20054;-71
2024/02/17 10:13:40;;;;;;;1.45;1.45;;;;;;;15.72;46.35;97806.75;4964652;28;20101;-66
2024/02/17 10:16:10;;;;;;;1.52;1.52;;;;;;;15.96;45.82;97795.00;4964224;28;20545;-66
2024/02/17 10:18:42;;;;;;;1.63;1.63;;;;;;;15.94;45.60;97797.38;4963303;28;20141;-66
2024/02/17 10:21:10;;;;;;;1.75;1.75;;;;;;;15.94;45.49;97799.34;4963689;28;20062;-63
2024/02/17 10:23:36;;;;;;;1.50;1.50;;;;;;;15.86;45.75;97789.31;4962666;28;20113;-64
2024/02/17 10:26:04;;;;;;;1.35;1.35;;;;;;;15.34;45.56;97711.41;4963833;28;20055;-70
2024/02/17 10:28:30;;;;;;;1.50;1.50;;;;;;;15.81;45.85;97787.66;4964667;28;20053;-70
2024/02/17 10:30:58;;;;;;;1.50;1.50;;;;;;;15.48;45.26;97717.97;4966627;28;20164;-64
2024/02/17 10:33:25;;;;;;;1.77;1.77;;;;;;;16.02;45.38;97759.91;4968667;28;20051;-65
2024/02/17 10:35:56;;;;;;;1.50;1.50;;;;;;;14.74;46.34;97721.94;4963585;28;20138;-65
2024/02/17 10:38:26;;;;;;;1.23;1.23;;;;;;;15.31;46.55;97793.94;4963568;28;20517;-63
2024/02/17 10:40:54;;;;;;;1.52;1.52;;;;;;;15.16;45.73;97742.75;4963596;28;20046;-62
2024/02/17 10:43:21;;;;;;;1.40;1.40;;;;;;;15.62;45.44;97778.72;4963665;28;20105;-61
2024/02/17 10:45:57;;;;;;;1.50;1.50;;;;;;;15.12;44.55;97671.34;4975932;28;20065;-64
2024/02/17 10:48:25;;;;;;;1.40;1.40;;;;;;;15.50;44.69;97771.44;4982396;28;20050;-65
2024/02/17 10:50:53;;;;;;;1.60;1.60;;;;;;;15.67;44.86;97769.97;4983734;28;20054;-71
2024/02/17 10:53:29;;;;;;;1.52;1.52;;;;;;;15.82;45.10;97766.91;4981945;28;20049;-61
2024/02/17 10:55:59;;;;;;;1.55;1.55;;;;;;;15.75;44.23;97766.88;4982403;28;20065;-66
2024/02/17 10:58:26;;;;;;;1.30;1.30;;;;;;;15.07;44.47;97766.56;4982843;28;20252;-65
2024/02/17 11:00:53;;;;;;;1.45;1.45;;;;;;;14.86;44.72;97713.31;4980620;28;20050;-67
2024/02/17 11:03:30;;;;;;;1.30;1.30;;;;;;;15.49;45.25;97763.44;4982289;28;20558;-62
2024/02/17 11:06:03;;;;;;;1.40;1.40;;;;;;;15.70;44.85;97742.09;4980678;28;20098;-63
2024/02/17 11:08:35;;;;;;;1.50;1.50;;;;;;;15.02;44.51;97616.22;4963528;28;20078;-65
2024/02/17 11:11:32;;;;;;;1.50;1.50;;;;;;;15.47;44.06;97727.53;4967727;28;20053;-62
2024/02/17 11:14:39;;;;;;;1.45;1.45;;;;;;;16.15;43.45;97746.41;4972188;28;20044;-73
2024/02/17 11:17:12;;;;;;;1.58;1.58;;;;;;;16.28;43.12;97751.28;4975405;28;20050;-71
2024/02/17 11:19:39;;;;;;;;;;;;;;;16.48;43.27;97749.84;4984587;28;20057;-71
2024/02/17 11:22:10;;;;;;;1.50;1.50;;;;;;;16.16;42.48;97659.38;4984611;28;19926;-72
2024/02/17 11:24:37;;;;;;;1.70;1.70;;;;;;;15.53;44.07;97741.94;4984964;28;20054;-72
2024/02/17 11:27:05;;;;;;;1.63;1.63;;;;;;;16.06;43.40;97737.56;4986737;28;20484;-73
2024/02/17 11:29:34;;;;;;;1.70;1.70;;;;;;;16.41;43.07;97738.56;4985084;28;20573;-72
2024/02/17 11:32:04;;;;;;;1.60;1.60;;;;;;;16.63;42.44;97739.50;4986590;28;20050;-72
2024/02/17 11:34:31;;;;;;;1.90;1.90;;;;;;;16.47;42.17;97720.25;4985939;28;20050;-72
2024/02/17 11:36:58;;;;;;;1.60;1.60;;;;;;;16.63;41.35;97738.72;4986770;28;20415;-72
2024/02/17 11:39:25;;;;;;;1.48;1.48;;;;;;;15.44;43.10;97691.19;4985943;28;20576;-72
2024/02/17 11:41:53;;;;;;;1.67;1.67;;;;;;;15.95;42.90;97745.09;4986073;28;20081;-72
2024/02/17 11:44:20;;;;;;;1.70;1.70;;;;;;;16.38;42.19;97733.78;4986310;28;20081;-71